createdAt,value
2023-04-15T00:00:53.797Z,96065.94
2023-04-15T00:05:47.326Z,96060.84
2023-04-15T00:10:40.740Z,96059.38
2023-04-15T00:15:35.459Z,96054.97
2023-04-15T00:20:28.884Z,96058.44
2023-04-15T00:25:22.199Z,96062.19
2023-04-15T00:30:15.589Z,96056.81
2023-04-15T00:35:10.951Z,96065.63
2023-04-15T00:40:05.925Z,96061.16
2023-04-15T00:44:59.321Z,96055.03
2023-04-15T00:49:52.884Z,96059.41
2023-04-15T00:54:47.595Z,96060.84
2023-04-15T00:59:41.173Z,96054.00
2023-04-15T01:04:34.550Z,96057.63
2023-04-15T01:09:28.310Z,96066.34
2023-04-15T01:14:22.990Z,96073.41
2023-04-15T01:19:19.093Z,96071.50
2023-04-15T01:24:14.784Z,96061.97
2023-04-15T01:29:09.597Z,96075.16
2023-04-15T01:34:02.917Z,96076.63
2023-04-15T01:38:58.550Z,96073.22
2023-04-15T01:43:52.599Z,96076.41
2023-04-15T01:48:47.325Z,96073.09
2023-04-15T01:53:40.662Z,96073.47
2023-04-15T01:58:34.186Z,96070.72
2023-04-15T02:03:27.905Z,96080.81
2023-04-15T02:08:22.689Z,96077.53
2023-04-15T02:13:17.063Z,96081.59
2023-04-15T02:18:10.416Z,96083.31
2023-04-15T02:23:07.312Z,96086.97
2023-04-15T02:28:02.041Z,96086.72
2023-04-15T02:32:56.021Z,96096.03
2023-04-15T02:37:49.399Z,96084.97
2023-04-15T02:42:44.382Z,96081.28
2023-04-15T02:47:41.441Z,96075.00
2023-04-15T02:52:34.769Z,96075.03
2023-04-15T02:57:29.560Z,96070.59
2023-04-15T03:02:23.066Z,96084.03
2023-04-15T03:07:19.484Z,96088.75
2023-04-15T03:12:12.819Z,96091.78
2023-04-15T03:17:06.087Z,96095.25
2023-04-15T03:21:59.357Z,96089.88
2023-04-15T03:26:55.165Z,96091.34
2023-04-15T03:31:48.457Z,96083.03
2023-04-15T03:36:41.818Z,96086.63
2023-04-15T03:41:35.116Z,96082.13
2023-04-15T03:46:29.826Z,96081.25
2023-04-15T03:51:23.216Z,96081.16
2023-04-15T03:56:16.523Z,96075.03
2023-04-15T04:01:10.811Z,96084.78
2023-04-15T04:06:05.605Z,96079.09
2023-04-15T04:10:58.914Z,96080.84
2023-04-15T04:15:52.200Z,96087.25
2023-04-15T04:20:45.841Z,96085.59
2023-04-15T04:25:40.545Z,96085.88
2023-04-15T04:30:34.061Z,96100.31
2023-04-15T04:35:27.486Z,96099.66
2023-04-15T04:40:20.887Z,96094.97
2023-04-15T04:45:15.720Z,96090.28
2023-04-15T04:50:10.634Z,96093.44
2023-04-15T04:55:05.974Z,96084.69
2023-04-15T04:59:59.225Z,96088.75
2023-04-15T05:04:54.489Z,96092.09
2023-04-15T05:09:47.853Z,96096.03
2023-04-15T05:14:41.148Z,96089.84
2023-04-15T05:19:34.475Z,96083.31
2023-04-15T05:24:29.161Z,96082.28
2023-04-15T05:29:22.540Z,96092.28
2023-04-15T05:34:17.535Z,96095.16
2023-04-15T05:39:10.888Z,96093.34
2023-04-15T05:44:06.213Z,96095.78
2023-04-15T05:48:59.717Z,96091.72
2023-04-15T05:53:53.172Z,96090.19
2023-04-15T05:58:46.525Z,96091.31
2023-04-15T06:03:41.424Z,96095.78
2023-04-15T06:08:37.579Z,96092.09
2023-04-15T06:13:31.041Z,96089.88
2023-04-15T06:18:24.493Z,96094.91
2023-04-15T06:23:19.194Z,96086.75
2023-04-15T06:28:12.428Z,96084.66
2023-04-15T06:33:06.596Z,96086.75
2023-04-15T06:37:59.941Z,96086.09
2023-04-15T06:42:54.835Z,96098.56
2023-04-15T06:47:48.201Z,96096.56
2023-04-15T06:52:41.595Z,96096.72
2023-04-15T06:57:35.130Z,96100.28
2023-04-15T07:02:30.082Z,96107.81
2023-04-15T07:07:23.558Z,96102.72
2023-04-15T07:12:16.935Z,96113.41
2023-04-15T07:17:11.488Z,96110.34
2023-04-15T07:22:06.571Z,96116.06
2023-04-15T07:27:01.134Z,96105.84
2023-04-15T07:31:56.674Z,96104.53
2023-04-15T07:36:50.648Z,96107.38
2023-04-15T07:41:45.661Z,96106.53
2023-04-15T07:46:39.250Z,96109.97
2023-04-15T07:51:32.637Z,96107.59
2023-04-15T07:56:26.544Z,96110.44
2023-04-15T08:01:21.687Z,96115.16
2023-04-15T08:06:15.077Z,96118.00
2023-04-15T08:11:08.437Z,96110.75
2023-04-15T08:16:22.938Z,96117.59
2023-04-15T08:21:17.736Z,96111.88
2023-04-15T08:26:11.184Z,96106.59
2023-04-15T08:31:04.609Z,96114.44
2023-04-15T08:35:59.394Z,96113.56
2023-04-15T08:40:52.871Z,96110.09
2023-04-15T08:45:48.727Z,96109.31
2023-04-15T08:50:42.443Z,96109.13
2023-04-15T08:55:44.740Z,96107.19
2023-04-15T09:00:38.885Z,96107.63
2023-04-15T09:05:34.649Z,96103.25
2023-04-15T09:10:28.718Z,96099.97
2023-04-15T09:15:25.816Z,96101.31
2023-04-15T09:20:19.820Z,96108.69
2023-04-15T09:25:32.165Z,96111.06
2023-04-15T09:30:30.113Z,96117.78
2023-04-15T09:35:26.277Z,96107.63
2023-04-15T09:40:34.060Z,96105.16
2023-04-15T09:45:29.634Z,96112.16
2023-04-15T09:50:23.137Z,96114.38
2023-04-15T09:55:20.398Z,96111.47
2023-04-15T10:00:15.247Z,96104.75
2023-04-15T10:05:15.077Z,96105.59
2023-04-15T10:10:10.176Z,96105.75
2023-04-15T10:15:08.057Z,96111.81
2023-04-15T10:20:03.652Z,96110.28
2023-04-15T10:24:59.941Z,96111.94
2023-04-15T10:29:53.416Z,96113.16
2023-04-15T10:34:48.540Z,96115.38
2023-04-15T10:39:44.607Z,96111.63
2023-04-15T10:44:40.417Z,96107.59
2023-04-15T10:49:33.860Z,96114.06
2023-04-15T10:54:34.659Z,96112.50
2023-04-15T10:59:30.499Z,96110.84
2023-04-15T11:04:57.530Z,96114.31
2023-04-15T11:09:50.958Z,96119.69
2023-04-15T11:14:44.399Z,96125.09
2023-04-15T11:19:39.216Z,96124.41
2023-04-15T11:24:33.986Z,96126.19
2023-04-15T11:29:32.389Z,96120.63
2023-04-15T11:34:25.746Z,96125.47
2023-04-15T11:39:24.055Z,96117.53
2023-04-15T11:44:21.616Z,96118.09
2023-04-15T11:49:28.860Z,96124.13
2023-04-15T11:54:22.320Z,96138.44
2023-04-15T11:59:15.856Z,96138.38
2023-04-15T12:04:15.134Z,96141.47
2023-04-15T12:09:13.580Z,96150.72
2023-04-15T12:14:14.467Z,96159.38
2023-04-15T12:19:11.539Z,96174.59
2023-04-15T12:24:09.676Z,96180.19
2023-04-15T12:29:05.109Z,96172.22
2023-04-15T12:33:59.073Z,96179.84
2023-04-15T12:38:52.406Z,96181.56
2023-04-15T12:43:47.857Z,96191.91
2023-04-15T12:48:41.976Z,96192.75
2023-04-15T12:58:56.407Z,96204.50
2023-04-15T13:03:51.252Z,96216.16
2023-04-15T13:08:57.279Z,96201.47
2023-04-15T13:13:52.743Z,96211.94
2023-04-15T13:18:47.470Z,96226.22
2023-04-15T13:23:40.832Z,96222.56
2023-04-15T13:28:34.095Z,96227.53
2023-04-15T13:33:27.990Z,96232.41
2023-04-15T13:38:22.693Z,96222.44
2023-04-15T13:43:16.333Z,96243.22
2023-04-15T13:48:09.646Z,96225.56
2023-04-15T13:53:02.949Z,96234.41
2023-04-15T13:58:00.047Z,96241.81
2023-04-15T14:02:53.470Z,96230.09
2023-04-15T14:07:47.103Z,96238.38
2023-04-15T14:12:40.487Z,96240.72
2023-04-15T14:17:38.635Z,96244.91
2023-04-15T14:22:32.018Z,96255.69
2023-04-15T14:27:25.325Z,96249.16
2023-04-15T14:32:18.694Z,96263.81
2023-04-15T14:37:13.509Z,96274.81
2023-04-15T14:42:06.818Z,96286.75
2023-04-15T14:47:00.189Z,96292.69
2023-04-15T14:51:53.650Z,96314.41
2023-04-15T14:56:48.305Z,96317.25
2023-04-15T15:01:41.886Z,96325.97
2023-04-15T15:06:35.775Z,96328.59
2023-04-15T15:11:29.745Z,96335.31
2023-04-15T15:16:24.629Z,96346.69
2023-04-15T15:21:18.126Z,96358.94
2023-04-15T15:26:11.698Z,96371.16
2023-04-15T15:31:06.103Z,96374.59
2023-04-15T15:36:01.223Z,96375.97
2023-04-15T15:40:54.825Z,96380.25
2023-04-15T15:45:51.602Z,96397.81
2023-04-15T15:50:45.631Z,96382.47
2023-04-15T15:55:40.350Z,96400.03
2023-04-15T16:00:33.698Z,96406.50
2023-04-15T16:05:27.066Z,96413.66
2023-04-15T16:10:20.544Z,96419.44
2023-04-15T16:15:15.377Z,96429.34
2023-04-15T16:20:10.178Z,96429.72
2023-04-15T16:25:03.813Z,96437.84
2023-04-15T16:29:57.182Z,96420.56
2023-04-15T16:34:53.206Z,96434.91
2023-04-15T16:39:46.462Z,96452.09
2023-04-15T16:44:39.994Z,96478.31
2023-04-15T16:49:34.953Z,96489.09
2023-04-15T16:54:30.249Z,96509.72
2023-04-15T16:59:23.575Z,96533.44
2023-04-15T17:04:16.912Z,96549.38
2023-04-15T17:09:10.255Z,96551.66
2023-04-15T17:14:05.872Z,96556.06
2023-04-15T17:18:59.219Z,96566.03
2023-04-15T17:23:53.128Z,96578.91
2023-04-15T17:28:46.671Z,96585.63
2023-04-15T17:34:02.141Z,96594.53
2023-04-15T17:38:57.688Z,96602.06
2023-04-15T17:43:51.024Z,96608.28
2023-04-15T17:48:45.799Z,96613.03
2023-04-15T17:53:39.126Z,96622.34
2023-04-15T17:58:32.924Z,96638.53
2023-04-15T18:03:26.543Z,96650.34
2023-04-15T18:08:21.495Z,96664.25
2023-04-15T18:13:14.804Z,96671.13
2023-04-15T18:18:08.117Z,96676.75
2023-04-15T18:23:01.564Z,96681.25
2023-04-15T18:27:56.491Z,96679.94
2023-04-15T18:32:50.061Z,96687.31
2023-04-15T18:37:43.438Z,96703.84
2023-04-15T18:42:36.776Z,96726.88
2023-04-15T18:47:31.612Z,96717.97
2023-04-15T18:52:24.947Z,96710.50
2023-04-15T18:57:28.767Z,96728.00
2023-04-15T19:02:25.820Z,96731.31
2023-04-15T19:07:20.711Z,96752.09
2023-04-15T19:12:14.035Z,96773.91
2023-04-15T19:17:07.374Z,96777.44
2023-04-15T19:22:01.694Z,96782.00
2023-04-15T19:26:57.236Z,96788.72
2023-04-15T19:31:50.625Z,96806.28
2023-04-15T19:36:44.324Z,96813.91
2023-04-15T19:41:39.224Z,96813.59
2023-04-15T19:46:34.188Z,96794.38
2023-04-15T19:51:28.584Z,96796.16
2023-04-15T19:56:23.899Z,96802.56
2023-04-15T20:01:17.392Z,96793.63
2023-04-15T20:06:12.181Z,96800.19
2023-04-15T20:11:05.627Z,96811.72
2023-04-15T20:15:59.045Z,96809.63
2023-04-15T20:20:54.824Z,96794.13
2023-04-15T20:26:07.144Z,96794.00
2023-04-15T20:31:05.007Z,96797.56
2023-04-15T20:36:01.528Z,96803.28
2023-04-15T20:40:54.902Z,96806.84
2023-04-15T20:45:51.487Z,96795.47
2023-04-15T20:50:44.882Z,96788.22
2023-04-15T20:55:38.186Z,96785.16
2023-04-15T21:00:33.080Z,96789.72
2023-04-15T21:05:30.492Z,96792.78
2023-04-15T21:10:23.902Z,96794.16
2023-04-15T21:15:17.571Z,96805.41
2023-04-15T21:20:12.711Z,96805.13
2023-04-15T21:25:08.814Z,96820.28
2023-04-15T21:30:02.363Z,96815.28
2023-04-15T21:34:55.749Z,96811.28
2023-04-15T21:39:49.173Z,96827.09
2023-04-15T21:44:43.843Z,96822.84
2023-04-15T21:49:37.177Z,96825.13
2023-04-15T21:54:31.247Z,96829.72
2023-04-15T21:59:24.705Z,96828.56
2023-04-15T22:04:19.465Z,96830.97
2023-04-15T22:09:14.419Z,96828.69
2023-04-15T22:14:07.879Z,96826.63
2023-04-15T22:19:02.639Z,96832.03
2023-04-15T22:24:33.282Z,96823.66
2023-04-15T22:29:11.074Z,96829.94
2023-04-15T22:34:04.409Z,96835.38
2023-04-15T22:38:59.100Z,96841.31
2023-04-15T22:43:52.470Z,96844.16
2023-04-15T22:48:45.979Z,96852.50
2023-04-15T22:53:39.233Z,96852.00
2023-04-15T22:58:33.853Z,96862.53
2023-04-15T23:03:27.238Z,96867.56
2023-04-15T23:08:23.869Z,96864.41
2023-04-15T23:13:17.245Z,96869.59
2023-04-15T23:18:11.961Z,96879.22
2023-04-15T23:23:05.295Z,96873.56
2023-04-15T23:27:58.648Z,96881.81
2023-04-15T23:32:51.991Z,96883.72
2023-04-15T23:37:46.717Z,96882.13
2023-04-15T23:42:40.050Z,96879.81
2023-04-15T23:47:33.437Z,96883.34
2023-04-15T23:52:26.892Z,96878.44
2023-04-15T23:57:21.567Z,96882.72
